createdAt,value
2022-10-22T00:01:07.961Z,101175.22
2022-10-22T00:03:35.621Z,101172.72
2022-10-22T00:06:03.317Z,101172.00
2022-10-22T00:08:31.245Z,101168.09
2022-10-22T00:10:59.235Z,101170.03
2022-10-22T00:13:26.787Z,101163.31
2022-10-22T00:15:55.205Z,101174.09
2022-10-22T00:18:23.151Z,101164.72
2022-10-22T00:20:50.632Z,101162.06
2022-10-22T00:23:18.188Z,101163.19
2022-10-22T00:25:46.263Z,101155.78
2022-10-22T00:28:14.976Z,101138.03
2022-10-22T00:30:42.889Z,101126.97
2022-10-22T00:33:10.772Z,101132.03
2022-10-22T00:35:38.777Z,101131.63
2022-10-22T00:38:06.213Z,101126.00
2022-10-22T00:40:34.226Z,101110.50
2022-10-22T00:43:01.932Z,101108.84
2022-10-22T00:45:29.670Z,101092.91
2022-10-22T00:48:01.170Z,101095.84
2022-10-22T00:50:43.691Z,101088.19
2022-10-22T00:53:15.851Z,101082.03
2022-10-22T00:55:46.539Z,101091.09
2022-10-22T00:58:15.168Z,101102.13
2022-10-22T01:00:43.380Z,101112.47
2022-10-22T01:03:11.284Z,101117.63
2022-10-22T01:05:55.986Z,101121.97
2022-10-22T01:08:48.088Z,101111.34
2022-10-22T01:11:35.498Z,101102.41
2022-10-22T01:14:18.274Z,101096.53
2022-10-22T01:17:01.296Z,101098.78
2022-10-22T01:19:46.151Z,101093.28
2022-10-22T01:22:29.044Z,101083.66
2022-10-22T01:24:57.171Z,101076.84
2022-10-22T01:27:37.283Z,101072.75
2022-10-22T01:30:11.291Z,101068.84
2022-10-22T01:32:48.396Z,101065.09
2022-10-22T01:35:21.058Z,101057.25
2022-10-22T01:37:54.160Z,101071.09
2022-10-22T01:40:24.941Z,101075.53
2022-10-22T01:43:07.394Z,101064.38
2022-10-22T01:45:38.605Z,101066.22
2022-10-22T01:48:27.559Z,101059.06
2022-10-22T01:51:06.185Z,101053.88
2022-10-22T01:53:58.136Z,101053.75
2022-10-22T01:56:47.942Z,101046.91
2022-10-22T01:59:21.530Z,101037.53
2022-10-22T02:01:49.694Z,101041.47
2022-10-22T02:04:29.158Z,101039.91
2022-10-22T02:07:00.400Z,101042.56
2022-10-22T02:09:30.148Z,101037.00
2022-10-22T02:11:59.718Z,101027.94
2022-10-22T02:14:30.280Z,101043.53
2022-10-22T02:17:00.140Z,101048.13
2022-10-22T02:19:49.738Z,101049.81
2022-10-22T02:22:18.260Z,101040.88
2022-10-22T02:24:46.556Z,101022.56
2022-10-22T02:27:25.820Z,101026.06
2022-10-22T02:30:08.692Z,101018.81
2022-10-22T02:32:42.635Z,101019.72
2022-10-22T02:35:15.263Z,101023.34
2022-10-22T02:37:44.297Z,101010.78
2022-10-22T02:40:12.383Z,101002.56
2022-10-22T02:42:42.529Z,100984.94
2022-10-22T02:45:10.594Z,100982.28
2022-10-22T02:47:38.597Z,100981.91
2022-10-22T02:50:09.617Z,100977.81
2022-10-22T02:52:39.392Z,100976.59
2022-10-22T02:55:08.315Z,100978.69
2022-10-22T02:57:36.201Z,100991.94
2022-10-22T03:00:09.451Z,100992.91
2022-10-22T03:02:37.347Z,101001.97
2022-10-22T03:05:05.774Z,100990.25
2022-10-22T03:07:34.466Z,100980.91
2022-10-22T03:10:02.289Z,100981.47
2022-10-22T03:12:29.857Z,100990.97
2022-10-22T03:14:58.506Z,100978.53
2022-10-22T03:17:26.602Z,100977.53
2022-10-22T03:19:54.087Z,100977.13
2022-10-22T03:22:27.302Z,100973.09
2022-10-22T03:25:00.721Z,100964.31
2022-10-22T03:27:30.277Z,100961.78
2022-10-22T03:29:58.847Z,100950.16
2022-10-22T03:32:26.841Z,100946.22
2022-10-22T03:34:55.054Z,100950.28
2022-10-22T03:37:24.271Z,100942.88
2022-10-22T03:39:53.045Z,100930.16
2022-10-22T03:42:21.528Z,100940.53
2022-10-22T03:44:49.223Z,100955.72
2022-10-22T03:47:16.721Z,100948.59
2022-10-22T03:49:44.734Z,100949.03
2022-10-22T03:52:14.463Z,100957.13
2022-10-22T03:54:42.589Z,100961.03
2022-10-22T03:57:11.347Z,100954.88
2022-10-22T03:59:44.652Z,100953.63
2022-10-22T04:02:13.632Z,100956.13
2022-10-22T04:04:41.666Z,100965.38
2022-10-22T04:07:09.427Z,100958.78
2022-10-22T04:09:37.261Z,100962.47
2022-10-22T04:12:06.635Z,100964.84
2022-10-22T04:14:34.355Z,100971.13
2022-10-22T04:17:02.162Z,100971.94
2022-10-22T04:19:29.920Z,100955.38
2022-10-22T04:21:59.942Z,100950.31
2022-10-22T04:24:27.985Z,100956.69
2022-10-22T04:26:55.997Z,100941.38
2022-10-22T04:29:24.305Z,100941.78
2022-10-22T04:31:52.992Z,100951.44
2022-10-22T04:34:21.283Z,100951.06
2022-10-22T04:36:48.962Z,100958.31
2022-10-22T04:39:16.442Z,100963.63
2022-10-22T04:41:44.160Z,100959.16
2022-10-22T04:44:15.942Z,100953.13
2022-10-22T04:46:45.048Z,100948.53
2022-10-22T04:49:13.102Z,100944.91
2022-10-22T04:51:40.584Z,100924.09
2022-10-22T04:54:08.592Z,100925.19
2022-10-22T04:56:36.259Z,100910.84
2022-10-22T04:59:06.846Z,100922.59
2022-10-22T05:01:41.611Z,100941.41
2022-10-22T05:04:13.679Z,100937.47
2022-10-22T05:06:41.500Z,100926.59
2022-10-22T05:09:13.567Z,100926.03
2022-10-22T05:11:45.558Z,100915.38
2022-10-22T05:14:13.328Z,100928.78
2022-10-22T05:16:40.973Z,100920.75
2022-10-22T05:19:09.680Z,100907.97
2022-10-22T05:21:37.654Z,100917.38
2022-10-22T05:24:05.650Z,100924.47
2022-10-22T05:26:33.279Z,100922.91
2022-10-22T05:29:01.249Z,100927.50
2022-10-22T05:31:29.579Z,100916.19
2022-10-22T05:33:57.496Z,100919.41
2022-10-22T05:36:26.059Z,100914.66
2022-10-22T05:38:54.336Z,100913.25
2022-10-22T05:41:24.140Z,100912.38
2022-10-22T05:43:54.167Z,100918.66
2022-10-22T05:46:23.498Z,100911.13
2022-10-22T05:48:59.518Z,100908.16
2022-10-22T05:51:28.846Z,100917.09
2022-10-22T05:54:01.828Z,100919.59
2022-10-22T05:56:32.074Z,100920.44
2022-10-22T05:59:00.302Z,100927.97
2022-10-22T06:01:31.164Z,100928.66
2022-10-22T06:04:02.411Z,100935.09
2022-10-22T06:06:38.398Z,100932.59
2022-10-22T06:09:39.572Z,100930.41
2022-10-22T06:12:10.854Z,100940.75
2022-10-22T06:14:38.799Z,100941.16
2022-10-22T06:17:06.347Z,100947.97
2022-10-22T06:19:34.320Z,100954.06
2022-10-22T06:22:01.807Z,100942.53
2022-10-22T06:24:30.454Z,100944.34
2022-10-22T06:26:57.977Z,100955.31
2022-10-22T06:29:25.485Z,100962.50
2022-10-22T06:31:53.890Z,100958.03
2022-10-22T06:34:21.926Z,100954.66
2022-10-22T06:36:51.642Z,100960.31
2022-10-22T06:39:19.393Z,100971.16
2022-10-22T06:41:47.118Z,100978.69
2022-10-22T06:44:19.816Z,100983.88
2022-10-22T06:46:52.453Z,100990.03
2022-10-22T06:49:20.954Z,100990.66
2022-10-22T06:51:53.351Z,100983.94
2022-10-22T06:54:22.321Z,100983.25
2022-10-22T06:56:50.474Z,100979.84
2022-10-22T06:59:18.933Z,100976.75
2022-10-22T07:01:46.734Z,100976.59
2022-10-22T07:04:15.013Z,100977.97
2022-10-22T07:06:42.640Z,100981.72
2022-10-22T07:09:10.163Z,100986.34
2022-10-22T07:11:44.981Z,100989.09
2022-10-22T07:14:13.728Z,100993.56
2022-10-22T07:16:43.339Z,100991.09
2022-10-22T07:19:10.924Z,100998.34
2022-10-22T07:21:39.831Z,101011.09
2022-10-22T07:24:07.623Z,101002.00
2022-10-22T07:26:35.384Z,100992.94
2022-10-22T07:29:04.860Z,100996.25
2022-10-22T07:31:32.373Z,101003.25
2022-10-22T07:34:00.258Z,101002.97
2022-10-22T07:36:28.193Z,101011.53
2022-10-22T07:38:57.841Z,101013.25
2022-10-22T07:41:26.432Z,101013.88
2022-10-22T07:43:54.296Z,101020.25
2022-10-22T07:46:22.222Z,101018.88
2022-10-22T07:48:49.851Z,101021.72
2022-10-22T07:51:17.754Z,101027.41
2022-10-22T07:53:45.556Z,101025.28
2022-10-22T07:56:13.961Z,101027.59
2022-10-22T07:58:41.902Z,101016.81
2022-10-22T08:01:09.726Z,101018.13
2022-10-22T08:03:37.245Z,101028.28
2022-10-22T08:06:05.160Z,101028.28
2022-10-22T08:08:34.766Z,101026.94
2022-10-22T08:11:02.950Z,101023.53
2022-10-22T08:13:30.978Z,101025.97
2022-10-22T08:16:00.812Z,101019.59
2022-10-22T08:18:29.239Z,101029.06
2022-10-22T08:20:57.198Z,101036.97
2022-10-22T08:23:27.691Z,101027.47
2022-10-22T08:25:57.647Z,101022.63
2022-10-22T08:28:26.071Z,101021.72
2022-10-22T08:30:54.076Z,101023.16
2022-10-22T08:33:21.752Z,101031.13
2022-10-22T08:35:51.289Z,101023.75
2022-10-22T08:38:19.686Z,101041.44
2022-10-22T08:40:50.941Z,101033.50
2022-10-22T08:43:24.423Z,101042.81
2022-10-22T08:46:17.933Z,101037.84
2022-10-22T08:48:52.624Z,101041.38
2022-10-22T08:51:26.121Z,101049.69
2022-10-22T08:54:02.427Z,101051.16
2022-10-22T08:56:31.523Z,101047.56
2022-10-22T08:59:08.100Z,101047.88
2022-10-22T09:01:40.162Z,101052.31
2022-10-22T09:04:30.848Z,101054.09
2022-10-22T09:07:00.851Z,101059.16
2022-10-22T09:09:35.254Z,101046.09
2022-10-22T09:12:07.236Z,101062.94
2022-10-22T09:14:35.489Z,101066.06
2022-10-22T09:17:20.849Z,101060.06
2022-10-22T09:20:03.530Z,101054.78
2022-10-22T09:22:40.306Z,101061.22
2022-10-22T09:25:28.351Z,101067.25
2022-10-22T09:27:58.504Z,101064.97
2022-10-22T09:30:30.672Z,101065.03
2022-10-22T09:33:02.751Z,101049.06
2022-10-22T09:35:34.394Z,101066.47
2022-10-22T09:38:08.541Z,101068.22
2022-10-22T09:40:49.853Z,101068.00
2022-10-22T09:43:18.305Z,101073.25
2022-10-22T09:45:47.119Z,101080.03
2022-10-22T09:48:15.029Z,101070.28
2022-10-22T09:50:56.176Z,101070.59
2022-10-22T09:53:30.357Z,101072.72
2022-10-22T09:56:01.361Z,101069.09
2022-10-22T09:58:29.148Z,101068.81
2022-10-22T10:00:59.120Z,101068.97
2022-10-22T10:03:31.864Z,101068.84
2022-10-22T10:06:05.922Z,101082.31
2022-10-22T10:08:34.917Z,101085.28
2022-10-22T10:11:17.823Z,101084.59
2022-10-22T10:14:04.730Z,101083.56
2022-10-22T10:16:39.340Z,101071.41
2022-10-22T10:19:13.221Z,101074.97
2022-10-22T10:21:58.154Z,101084.84
2022-10-22T10:24:54.123Z,101089.06
2022-10-22T10:27:31.056Z,101089.78
2022-10-22T10:30:21.403Z,101086.72
2022-10-22T10:33:38.915Z,101093.09
2022-10-22T10:36:57.015Z,101091.03
2022-10-22T10:39:51.476Z,101108.16
2022-10-22T10:42:35.249Z,101105.69
2022-10-22T10:45:09.512Z,101101.72
2022-10-22T10:48:10.100Z,101093.22
2022-10-22T10:50:53.601Z,101098.75
2022-10-22T10:53:57.887Z,101100.47
2022-10-22T10:56:39.423Z,101103.69
2022-10-22T10:59:44.031Z,101100.75
2022-10-22T11:02:33.382Z,101096.06
2022-10-22T11:05:21.060Z,101103.91
2022-10-22T11:07:58.565Z,101103.00
2022-10-22T11:10:35.470Z,101101.16
2022-10-22T11:13:29.649Z,101101.78
2022-10-22T11:16:07.140Z,101101.59
2022-10-22T11:18:53.134Z,101103.00
2022-10-22T11:21:24.071Z,101098.78
2022-10-22T11:24:02.775Z,101090.97
2022-10-22T11:27:05.236Z,101086.41
2022-10-22T11:29:43.033Z,101096.78
2022-10-22T11:32:17.550Z,101097.13
2022-10-22T11:34:49.759Z,101101.44
2022-10-22T11:37:18.018Z,101099.81
2022-10-22T11:39:51.182Z,101098.34
2022-10-22T11:42:32.291Z,101088.75
2022-10-22T11:45:01.523Z,101096.31
2022-10-22T11:47:59.021Z,101100.88
2022-10-22T11:50:47.622Z,101097.91
2022-10-22T11:53:15.286Z,101108.38
2022-10-22T11:55:49.042Z,101104.66
2022-10-22T11:58:29.204Z,101108.97
2022-10-22T12:01:17.732Z,101108.78
2022-10-22T12:03:45.682Z,101111.97
2022-10-22T12:06:13.380Z,101121.00
2022-10-22T12:08:50.312Z,101116.59
2022-10-22T12:11:26.137Z,101115.91
2022-10-22T12:14:19.867Z,101114.75
2022-10-22T12:16:58.396Z,101126.94
2022-10-22T12:19:30.408Z,101131.59
2022-10-22T12:22:03.600Z,101144.13
2022-10-22T12:24:35.321Z,101148.56
2022-10-22T12:27:03.189Z,101134.38
2022-10-22T12:29:32.903Z,101128.81
2022-10-22T12:32:05.189Z,101145.50
2022-10-22T12:34:33.133Z,101148.09
2022-10-22T12:37:04.963Z,101143.75
2022-10-22T12:39:35.122Z,101138.81
2022-10-22T12:42:05.529Z,101137.56
2022-10-22T12:44:33.166Z,101141.78
2022-10-22T12:47:01.096Z,101137.81
2022-10-22T12:49:36.732Z,101125.94
2022-10-22T12:52:10.852Z,101130.78
2022-10-22T12:54:41.355Z,101127.69
2022-10-22T12:57:15.102Z,101130.78
2022-10-22T12:59:49.608Z,101124.84
2022-10-22T13:02:22.895Z,101121.66
2022-10-22T13:05:20.862Z,101117.13
2022-10-22T13:08:13.497Z,101119.16
2022-10-22T13:10:49.119Z,101123.75
2022-10-22T13:13:45.668Z,101133.22
2022-10-22T13:16:17.746Z,101130.16
2022-10-22T13:18:46.500Z,101135.63
2022-10-22T13:21:39.655Z,101135.00
2022-10-22T13:24:22.962Z,101141.66
2022-10-22T13:26:55.072Z,101140.91
2022-10-22T13:29:25.022Z,101133.06
2022-10-22T13:31:53.619Z,101140.56
2022-10-22T13:34:24.786Z,101132.97
2022-10-22T13:36:53.697Z,101144.25
2022-10-22T13:39:23.771Z,101139.63
2022-10-22T13:41:51.945Z,101137.81
2022-10-22T13:44:20.008Z,101138.16
2022-10-22T13:46:48.964Z,101141.03
2022-10-22T13:49:20.081Z,101144.50
2022-10-22T13:51:48.069Z,101135.19
2022-10-22T13:54:22.595Z,101138.75
2022-10-22T13:56:50.311Z,101139.78
2022-10-22T13:59:21.197Z,101132.34
2022-10-22T14:01:51.883Z,101128.28
2022-10-22T14:04:19.624Z,101118.19
2022-10-22T14:06:47.179Z,101122.44
2022-10-22T14:09:16.335Z,101132.59
2022-10-22T14:11:44.464Z,101121.50
2022-10-22T14:14:14.372Z,101121.41
2022-10-22T14:16:42.115Z,101126.34
2022-10-22T14:19:16.439Z,101131.66
2022-10-22T14:21:44.174Z,101118.41
2022-10-22T14:24:13.257Z,101127.56
2022-10-22T14:26:41.569Z,101120.50
2022-10-22T14:29:10.774Z,101125.78
2022-10-22T14:31:42.258Z,101125.69
2022-10-22T14:34:12.429Z,101131.09
2022-10-22T14:36:39.931Z,101124.81
2022-10-22T14:39:07.808Z,101131.38
2022-10-22T14:41:36.625Z,101132.47
2022-10-22T14:44:04.799Z,101135.50
2022-10-22T14:46:32.360Z,101142.94
2022-10-22T14:48:59.934Z,101143.13
2022-10-22T14:51:27.471Z,101144.03
2022-10-22T14:53:55.314Z,101143.19
2022-10-22T14:56:23.001Z,101147.25
2022-10-22T14:58:50.906Z,101147.72
2022-10-22T15:01:18.864Z,101144.03
2022-10-22T15:03:46.920Z,101140.91
2022-10-22T15:06:15.057Z,101151.31
2022-10-22T15:08:42.898Z,101149.63
2022-10-22T15:11:12.426Z,101157.69
2022-10-22T15:13:41.432Z,101155.75
2022-10-22T15:16:10.913Z,101154.81
2022-10-22T15:18:39.368Z,101161.56
2022-10-22T15:21:15.790Z,101168.03
2022-10-22T15:23:43.859Z,101154.28
2022-10-22T15:26:13.382Z,101152.59
2022-10-22T15:28:42.297Z,101156.00
2022-10-22T15:31:13.399Z,101168.41
2022-10-22T15:33:42.579Z,101163.28
2022-10-22T15:36:15.662Z,101159.38
2022-10-22T15:38:43.137Z,101162.34
2022-10-22T15:41:13.463Z,101160.25
2022-10-22T15:43:41.338Z,101166.50
2022-10-22T15:46:13.231Z,101172.78
2022-10-22T15:48:42.191Z,101173.88
2022-10-22T15:51:18.479Z,101181.59
2022-10-22T15:53:52.620Z,101175.38
2022-10-22T15:56:20.795Z,101184.72
2022-10-22T15:58:52.228Z,101183.72
2022-10-22T16:01:20.080Z,101187.25
2022-10-22T16:03:48.349Z,101192.75
2022-10-22T16:06:16.017Z,101198.22
2022-10-22T16:08:43.666Z,101196.06
2022-10-22T16:11:13.154Z,101201.06
2022-10-22T16:13:40.735Z,101204.44
2022-10-22T16:16:09.013Z,101209.78
2022-10-22T16:18:36.835Z,101217.41
2022-10-22T16:21:04.529Z,101215.06
2022-10-22T16:23:32.208Z,101223.38
2022-10-22T16:26:02.045Z,101227.84
2022-10-22T16:28:30.092Z,101224.31
2022-10-22T16:31:02.575Z,101221.69
2022-10-22T16:33:39.204Z,101220.53
2022-10-22T16:36:17.891Z,101217.44
2022-10-22T16:38:47.089Z,101231.66
2022-10-22T16:41:19.639Z,101230.81
2022-10-22T16:43:49.709Z,101233.47
2022-10-22T16:46:19.856Z,101244.25
2022-10-22T16:48:49.297Z,101242.91
2022-10-22T16:51:19.610Z,101250.50
2022-10-22T16:53:47.808Z,101255.75
2022-10-22T16:56:16.764Z,101268.78
2022-10-22T16:58:53.004Z,101261.78
2022-10-22T17:01:22.928Z,101266.56
2022-10-22T17:03:51.353Z,101265.38
2022-10-22T17:06:18.926Z,101264.91
2022-10-22T17:08:47.940Z,101272.88
2022-10-22T17:11:19.030Z,101274.72
2022-10-22T17:13:52.685Z,101273.94
2022-10-22T17:16:23.465Z,101288.72
2022-10-22T17:18:52.888Z,101285.59
2022-10-22T17:21:21.848Z,101280.34
2022-10-22T17:23:55.805Z,101284.97
2022-10-22T17:26:26.485Z,101295.91
2022-10-22T17:28:54.758Z,101299.44
2022-10-22T17:31:25.494Z,101296.13
2022-10-22T17:33:55.478Z,101301.47
2022-10-22T17:36:25.004Z,101301.34
2022-10-22T17:38:58.201Z,101307.09
2022-10-22T17:41:34.952Z,101315.38
2022-10-22T17:44:05.266Z,101316.75
2022-10-22T17:46:33.132Z,101321.41
2022-10-22T17:49:12.407Z,101324.22
2022-10-22T17:51:40.551Z,101321.09
2022-10-22T17:54:09.930Z,101333.31
2022-10-22T17:56:40.381Z,101329.66
2022-10-22T17:59:12.318Z,101336.66
2022-10-22T18:01:45.242Z,101336.94
2022-10-22T18:04:18.444Z,101339.19
2022-10-22T18:06:47.985Z,101344.22
2022-10-22T18:09:18.740Z,101356.97
2022-10-22T18:11:48.473Z,101359.63
2022-10-22T18:14:21.279Z,101361.00
2022-10-22T18:16:49.327Z,101361.59
2022-10-22T18:19:23.360Z,101364.09
2022-10-22T18:21:51.446Z,101360.88
2022-10-22T18:24:19.078Z,101365.22
2022-10-22T18:26:46.742Z,101374.88
2022-10-22T18:29:16.973Z,101380.31
2022-10-22T18:31:45.507Z,101389.56
2022-10-22T18:34:13.150Z,101393.63
2022-10-22T18:36:41.804Z,101397.09
2022-10-22T18:39:14.978Z,101399.34
2022-10-22T18:41:43.369Z,101402.38
2022-10-22T18:44:13.902Z,101404.19
2022-10-22T18:46:41.759Z,101389.50
2022-10-22T18:49:15.989Z,101394.56
2022-10-22T18:51:44.405Z,101403.91
2022-10-22T18:54:22.596Z,101407.13
2022-10-22T18:56:52.416Z,101402.59
2022-10-22T18:59:23.287Z,101402.91
2022-10-22T19:01:57.643Z,101400.13
2022-10-22T19:04:31.194Z,101406.50
2022-10-22T19:06:59.222Z,101409.91
2022-10-22T19:09:26.831Z,101409.28
2022-10-22T19:11:54.952Z,101416.78
2022-10-22T19:14:22.917Z,101420.44
2022-10-22T19:16:50.561Z,101417.75
2022-10-22T19:19:19.983Z,101417.63
2022-10-22T19:21:49.075Z,101422.28
2022-10-22T19:24:19.176Z,101430.38
2022-10-22T19:26:47.435Z,101438.38
2022-10-22T19:29:17.111Z,101443.84
2022-10-22T19:31:45.909Z,101444.69
2022-10-22T19:34:14.058Z,101448.31
2022-10-22T19:36:42.431Z,101448.88
2022-10-22T19:39:10.413Z,101449.59
2022-10-22T19:41:38.007Z,101444.41
2022-10-22T19:44:06.138Z,101451.25
2022-10-22T19:46:33.814Z,101457.28
2022-10-22T19:49:03.382Z,101466.75
2022-10-22T19:51:33.453Z,101467.63
2022-10-22T19:54:03.824Z,101467.34
2022-10-22T19:56:33.593Z,101467.03
2022-10-22T19:59:02.437Z,101477.97
2022-10-22T20:01:31.859Z,101475.31
2022-10-22T20:04:01.499Z,101476.69
2022-10-22T20:06:30.046Z,101483.28
2022-10-22T20:08:58.132Z,101479.81
2022-10-22T20:11:29.894Z,101483.41
2022-10-22T20:13:58.648Z,101487.97
2022-10-22T20:16:29.893Z,101489.91
2022-10-22T20:19:04.265Z,101493.25
2022-10-22T20:21:33.304Z,101488.97
2022-10-22T20:24:02.682Z,101485.31
2022-10-22T20:26:31.728Z,101485.84
2022-10-22T20:28:59.367Z,101492.53
2022-10-22T20:31:29.358Z,101496.81
2022-10-22T20:33:58.963Z,101499.47
2022-10-22T20:36:28.749Z,101492.72
2022-10-22T20:39:07.670Z,101489.91
2022-10-22T20:41:40.784Z,101497.75
2022-10-22T20:44:12.916Z,101506.84
2022-10-22T20:46:41.099Z,101501.53
2022-10-22T20:49:12.299Z,101508.78
2022-10-22T20:51:40.894Z,101504.19
2022-10-22T20:54:08.865Z,101514.25
2022-10-22T20:56:39.336Z,101523.53
2022-10-22T20:59:10.850Z,101523.53
2022-10-22T21:01:40.195Z,101529.38
2022-10-22T21:04:08.823Z,101539.38
2022-10-22T21:06:40.422Z,101539.31
2022-10-22T21:09:12.928Z,101530.13
2022-10-22T21:11:42.405Z,101532.53
2022-10-22T21:14:12.146Z,101535.31
2022-10-22T21:16:44.496Z,101532.41
2022-10-22T21:19:12.244Z,101535.94
2022-10-22T21:21:40.631Z,101533.88
2022-10-22T21:24:08.836Z,101539.81
2022-10-22T21:26:41.164Z,101536.28
2022-10-22T21:29:11.228Z,101538.75
2022-10-22T21:31:40.508Z,101538.22
2022-10-22T21:34:08.215Z,101543.56
2022-10-22T21:36:36.302Z,101539.31
2022-10-22T21:39:04.652Z,101545.38
2022-10-22T21:41:33.229Z,101553.28
2022-10-22T21:44:00.747Z,101543.97
2022-10-22T21:46:29.606Z,101551.81
2022-10-22T21:49:02.725Z,101556.16
2022-10-22T21:51:32.682Z,101559.66
2022-10-22T21:54:00.506Z,101558.28
2022-10-22T21:56:35.971Z,101552.59
2022-10-22T21:59:05.499Z,101556.53
2022-10-22T22:01:34.046Z,101548.75
2022-10-22T22:04:01.962Z,101554.25
2022-10-22T22:06:33.537Z,101557.75
2022-10-22T22:09:03.288Z,101556.25
2022-10-22T22:11:31.403Z,101565.78
2022-10-22T22:13:59.838Z,101559.81
2022-10-22T22:16:32.787Z,101560.66
2022-10-22T22:21:39.420Z,101560.56
2022-10-22T22:24:08.348Z,101558.38
2022-10-22T22:26:36.289Z,101548.91
2022-10-22T22:29:03.766Z,101537.13
2022-10-22T22:31:33.828Z,101545.47
2022-10-22T22:34:04.565Z,101546.91
2022-10-22T22:36:39.054Z,101551.06
2022-10-22T22:39:11.143Z,101554.09
2022-10-22T22:41:39.055Z,101545.88
2022-10-22T22:44:07.231Z,101548.06
2022-10-22T22:46:35.194Z,101550.72
2022-10-22T22:49:03.395Z,101555.22
2022-10-22T22:51:31.470Z,101551.38
2022-10-22T22:54:00.816Z,101548.91
2022-10-22T22:56:30.542Z,101555.00
2022-10-22T22:58:58.877Z,101545.22
2022-10-22T23:01:29.418Z,101554.31
2022-10-22T23:04:03.158Z,101545.16
2022-10-22T23:06:33.405Z,101552.16
2022-10-22T23:09:01.118Z,101560.84
2022-10-22T23:11:29.045Z,101556.06
2022-10-22T23:13:59.655Z,101558.25
2022-10-22T23:16:31.502Z,101554.63
2022-10-22T23:19:01.197Z,101550.75
2022-10-22T23:21:35.478Z,101548.59
2022-10-22T23:24:07.546Z,101549.06
2022-10-22T23:26:39.804Z,101555.66
2022-10-22T23:29:19.169Z,101565.34
2022-10-22T23:31:48.791Z,101567.09
2022-10-22T23:36:47.476Z,101570.09
2022-10-22T23:39:18.875Z,101564.06
2022-10-22T23:41:47.214Z,101565.16
2022-10-22T23:44:14.891Z,101558.88
2022-10-22T23:46:42.932Z,101559.28
2022-10-22T23:49:11.097Z,101565.34
2022-10-22T23:51:39.633Z,101555.13
2022-10-22T23:54:11.436Z,101556.22
2022-10-22T23:56:39.308Z,101553.91
2022-10-22T23:59:07.778Z,101562.25
